Latest Coastal Weather Observations for Maningrida Airport

IDD60701

Issued at 12:31 pm CST Monday 30 May 2016 (issued every 10 minutes, with the page automatically refreshed every 10 minutes)

About coastal observations | Map of coastal stations | Coastal observations for NT | Marine services | Other Formats
Station Details ID: 014405 Name: MANINGRIDA AIRPORT Lat: -12.06 Lon: 134.23 Height: 28.1 m
Data from the previous 72 hours. | See also: Recent months at Maningrida Airport
Date/Time
CST
Temp

°C
Wind Pressure Rain
since 9am
mm
Weather Cloud Vis
km
Sea
Height
m
Swell
Dir
 
Speed
knots
Gust
knots
hPa Trend Height
m
Period
s
Dir
30/12:30pm 31.7 ENE 12 18 1012.1 - 0.0 - Partly cloudy 10 - - - -
30/12:00pm 31.6 E 9 16 1012.5 - 0.0 - Cloudy 10 - - - -
30/11:30am 31.1 E 9 12 1012.8 - 0.0 - Partly cloudy 10 - - - -
30/11:00am 31.3 ESE 8 13 1013.4 - 0.0 - Partly cloudy 10 - - - -
30/10:30am 30.8 ESE 11 17 1013.7 - 0.0 - Partly cloudy 10 - - - -
30/10:00am 29.8 ESE 9 13 1013.8 - 0.0 - - 10 - - - -
30/09:30am 29.5 ESE 9 13 1014.1 - 0.0 - - 10 - - - -
30/09:00am 28.4 ESE 8 11 1014.0 - 0.0 - - 10 - - - -
30/08:30am 27.0 SE 7 10 1013.8 - 0.0 - - 10 - - - -
30/08:00am 25.8 SE 7 10 1013.5 - 0.0 - - 10 - - - -
30/07:30am 24.4 SE 6 8 1013.0 - 0.0 - - 10 - - - -
30/07:00am 23.4 SE 6 7 1012.7 - 0.0 - - 10 - - - -
30/06:30am 23.4 SE 6 8 1012.3 - 0.0 - - 10 - - - -
30/06:00am 23.4 SSE 7 9 1012.0 - 0.0 - - 10 - - - -
30/05:30am 23.2 SE 6 8 1012.0 - 0.0 - - 10 - - - -
30/05:00am 22.9 SSE 4 6 1011.9 - 0.0 - - 10 - - - -
30/04:30am 23.2 SSE 3 5 1012.0 - 0.0 - - 10 - - - -
30/04:00am 24.4 SSE 5 6 1011.9 - 0.0 - - 10 - - - -
30/03:30am 24.6 SSE 5 8 1012.1 - 0.0 - - 10 - - - -
30/03:00am 25.0 SE 7 10 1012.2 - 0.0 - - 10 - - - -
30/02:30am 25.5 SE 8 11 1012.3 - 0.0 - - 10 - - - -
30/02:00am 25.6 SE 9 11 1012.6 - 0.0 - - 10 - - - -
30/01:30am 25.8 SE 9 11 1012.9 - 0.0 - - 10 - - - -
30/01:00am 25.9 ESE 8 11 1012.8 - 0.0 - - 10 - - - -
30/12:30am 26.0 SE 7 9 1012.9 - 0.0 - - 10 - - - -
30/12:00am 26.1 SE 6 7 1012.9 - 0.0 - - 10 - - - -
 
Date/Time
CST
Temp

°C
Wind Pressure Rain
since 9am
mm
Weather Cloud Vis
km
Sea
Height
m
Swell
Dir
 
Speed
knots
Gust
knots
hPa Trend Height
m
Period
s
Dir
29/11:30pm 26.4 ESE 5 7 1013.0 - 0.0 - - 10 - - - -
29/11:00pm 26.6 ESE 6 7 1013.0 - 0.0 - - 10 - - - -
29/10:30pm 27.0 ESE 6 8 1013.1 - 0.0 - - 10 - - - -
29/10:00pm 27.2 ESE 5 6 1013.3 - 0.0 - - 10 - - - -
29/09:30pm 27.6 ESE 4 6 1013.4 - 0.0 - - 10 - - - -
29/09:00pm 27.9 E 5 7 1013.0 - 0.0 - - 10 - - - -
29/08:30pm 28.0 ENE 4 6 1012.7 - 0.0 - - 10 - - - -
29/08:00pm 27.9 ENE 5 9 1012.5 - 0.0 - - 10 - - - -
29/07:30pm 28.1 ENE 5 7 1012.1 - 0.0 - - 10 - - - -
29/07:00pm 28.3 ENE 5 8 1011.6 - 0.0 - - 10 - - - -
29/06:30pm 28.6 ENE 5 9 1011.3 - 0.0 - - 10 - - - -
29/06:00pm 29.1 NE 6 9 1011.0 - 0.0 - Mostly clear 10 - - - -
29/05:30pm 29.4 NE 8 11 1010.9 - 0.0 - - 10 - - - -
29/05:00pm 29.7 NE 8 13 1010.7 - 0.0 - - 10 - - - -
29/04:30pm 30.0 NE 8 11 1010.6 - 0.0 - - 10 - - - -
29/04:00pm 31.3 NE 9 15 1010.4 - 0.0 - - 10 - - - -
29/03:30pm 31.5 ENE 9 13 1010.5 - 0.0 - - 10 - - - -
29/03:00pm 31.3 NE 10 14 1010.7 - 0.0 - - 10 - - - -
29/02:30pm 31.7 ENE 9 13 1010.8 - 0.0 - Partly cloudy 10 - - - -
29/02:00pm 32.7 NE 8 12 1011.2 - 0.0 - Partly cloudy 10 - - - -
29/01:30pm 32.7 NE 8 13 1011.6 - 0.0 - - 10 - - - -
29/01:00pm 32.8 NE 9 14 1011.8 - 0.0 - Partly cloudy 10 - - - -
29/12:30pm 32.2 NE 9 13 1012.3 - 0.0 - Partly cloudy 10 - - - -
29/12:00pm 32.0 E 8 12 1012.8 - 0.0 - Mostly clear 10 - - - -
29/11:30am 32.1 NE 9 14 1013.2 - 0.0 - Partly cloudy 10 - - - -
29/11:00am 31.1 ENE 7 10 1013.5 - 0.0 - Partly cloudy 10 - - - -
29/10:30am 31.1 E 7 10 1013.9 - 0.0 - - 10 - - - -
29/10:00am 30.6 ESE 7 10 1014.0 - 0.0 - - 10 - - - -
29/09:30am 29.7 ESE 7 9 1013.9 - 0.0 - - 10 - - - -
29/09:00am 28.6 SE 8 11 1013.7 - 0.0 - - 10 - - - -
29/08:30am 27.5 SE 7 9 1013.5 - 0.0 - - 10 - - - -
29/08:00am 26.4 SE 8 10 1013.3 - 0.0 - - 10 - - - -
29/07:30am 25.0 SSE 6 9 1013.1 - 0.0 - - 10 - - - -
29/07:00am 23.9 SSE 6 8 1012.7 - 0.0 - - 10 - - - -
29/06:30am 24.0 SE 6 8 1012.4 - 0.0 - - 10 - - - -
29/06:00am 23.9 SSE 6 7 1012.0 - 0.0 - - 10 - - - -
29/05:30am 24.2 SE 6 8 1011.8 - 0.0 - - 10 - - - -
29/05:00am 24.2 SSE 6 7 1011.7 - 0.0 - - 10 - - - -
29/04:30am 24.0 SSE 6 7 1011.5 - 0.0 - - 10 - - - -
29/04:00am 24.0 SE 6 7 1011.4 - 0.0 - - 10 - - - -
29/03:30am 24.2 SSE 4 5 1011.4 - 0.0 - Partly cloudy 10 - - - -
29/03:00am 24.4 SSE 4 6 1011.5 - 0.0 - - 10 - - - -
29/02:30am 24.6 SSE 4 5 1011.6 - 0.0 - Partly cloudy 10 - - - -
29/02:00am 24.7 SSE 3 4 1011.7 - 0.0 - Partly cloudy 10 - - - -
29/01:30am 25.0 SSE 3 4 1011.8 - 0.0 - Partly cloudy 10 - - - -
29/01:00am 25.1 SSE 3 4 1012.0 - 0.0 - Partly cloudy 10 - - - -
29/12:30am 24.5 CALM 0 0 1012.2 - 0.0 - Partly cloudy 10 - - - -
29/12:00am 24.6 ESE 3 4 1012.3 - 0.0 - - 10 - - - -
 
Date/Time
CST
Temp

°C
Wind Pressure Rain
since 9am
mm
Weather Cloud Vis
km
Sea
Height
m
Swell
Dir
 
Speed
knots
Gust
knots
hPa Trend Height
m
Period
s
Dir
28/11:30pm 24.9 CALM 0 0 1012.3 - 0.0 - - 10 - - - -
28/11:00pm 25.8 CALM 0 1 1012.2 - 0.0 - - 10 - - - -
28/10:30pm 26.8 NE 3 5 1012.1 - 0.0 - - 10 - - - -
28/10:00pm 26.7 NE 3 5 1012.1 - 0.0 - - 10 - - - -
28/09:30pm 26.8 NE 3 4 1012.1 - 0.0 - - 10 - - - -
28/09:00pm 27.0 ENE 3 4 1012.0 - 0.0 - - 10 - - - -
28/08:30pm 27.2 NE 4 5 1011.7 - 0.0 - - 10 - - - -
28/08:00pm 27.5 NE 5 9 1011.6 - 0.0 - - 10 - - - -
28/07:30pm 27.6 NE 5 6 1011.1 - 0.0 - - 10 - - - -
28/07:00pm 27.8 NE 5 7 1010.8 - 0.0 - - 10 - - - -
28/06:30pm 28.1 NNE 6 9 1010.7 - 0.0 - - 10 - - - -
28/06:00pm 28.7 NE 6 9 1010.5 - 0.0 - - 10 - - - -
28/05:30pm 29.3 NE 7 11 1010.3 - 0.0 - - 10 - - - -
28/05:00pm 29.8 NE 8 11 1010.0 - 0.0 - - 10 - - - -
28/04:30pm 30.6 ENE 9 13 1009.9 - 0.0 - - 10 - - - -
28/04:00pm 31.3 NE 9 14 1010.0 - 0.0 - - 10 - - - -
28/03:30pm 31.1 NNE 10 15 1010.1 - 0.0 - - 10 - - - -
28/03:00pm 31.2 N 11 15 1010.2 - 0.0 - - 10 - - - -
28/02:30pm 32.2 NNE 11 15 1010.2 - 0.0 - - 10 - - - -
28/02:00pm 32.6 NNE 9 13 1010.5 - 0.0 - - 10 - - - -
28/01:30pm 32.6 N 9 11 1010.8 - 0.0 - - 10 - - - -
28/01:00pm 32.9 N 9 11 1011.4 - 0.0 - - 10 - - - -
28/12:30pm 32.7 NNW 6 9 1011.8 - 0.0 - - 10 - - - -
28/12:00pm 32.8 NW 7 9 1012.3 - 0.0 - - 10 - - - -
28/11:30am 31.9 NW 7 9 1012.7 - 0.0 - - 10 - - - -
28/11:00am 31.6 NNW 6 9 1013.2 - 0.0 - - 10 - - - -
28/10:30am 31.3 NNW 6 8 1013.5 - 0.0 - - 10 - - - -
28/10:00am 30.7 SW 4 6 1013.7 - 0.0 - - 10 - - - -
28/09:30am 29.9 SW 3 5 1013.9 - 0.0 - - 10 - - - -
28/09:00am 29.1 SW 4 6 1014.0 - 0.0 - - 10 - - - -
28/08:30am 27.7 SSW 4 5 1013.9 - 0.0 - - 10 - - - -
28/08:00am 26.3 SSW 4 5 1013.9 - 0.0 - - 10 - - - -
28/07:30am 24.7 SSW 3 4 1013.6 - 0.0 - - 10 - - - -
28/07:00am 23.6 SSW 2 3 1013.3 - 0.0 - - 10 - - - -
28/06:30am 23.7 SSW 3 4 1013.0 - 0.0 - - 10 - - - -
28/06:00am 23.8 SSW 3 4 1012.7 - 0.0 - - 10 - - - -
28/05:30am 24.0 SSW 4 5 1012.5 - 0.0 - - 10 - - - -
28/05:00am 24.0 SSW 4 5 1012.3 - 0.0 - - 10 - - - -
28/04:30am 24.2 SSW 4 6 1012.1 - 0.0 - - 10 - - - -
28/04:00am 24.2 SSW 4 5 1011.9 - 0.0 - - 10 - - - -
28/03:30am 24.4 S 4 6 1011.8 - 0.0 - - 10 - - - -
28/03:00am 24.3 SSE 3 5 1011.9 - 0.0 - - 10 - - - -
28/02:30am 24.3 SSE 1 3 1011.8 - 0.0 - - 10 - - - -
28/02:00am 24.5 SSE 3 4 1012.0 - 0.0 - - 10 - - - -
28/01:30am 24.9 SSE 3 4 1012.1 - 0.0 - - 10 - - - -
28/01:00am 25.3 SSE 2 4 1012.3 - 0.0 - Partly cloudy 10 - - - -
28/12:30am 25.0 NNE 3 6 1012.5 - 0.0 - - 10 - - - -
28/12:00am 25.5 CALM 0 0 1012.3 - 0.0 - - 10 - - - -
 
Date/Time
CST
Temp

°C
Wind Pressure Rain
since 9am
mm
Weather Cloud Vis
km
Sea
Height
m
Swell
Dir
 
Speed
knots
Gust
knots
hPa Trend Height
m
Period
s
Dir
27/11:30pm 26.2 CALM 0 0 1012.6 - 0.0 - - 10 - - - -
27/11:00pm 27.7 N 4 6 1012.4 - 0.0 - - 10 - - - -
27/10:30pm 28.0 N 5 7 1012.2 - 0.0 - - 10 - - - -
27/10:00pm 28.2 N 6 8 1012.3 - 0.0 - - 10 - - - -
27/09:30pm 28.2 N 6 8 1012.1 - 0.0 - - 10 - - - -
27/09:00pm 28.2 N 6 9 1012.0 - 0.0 - - 10 - - - -
27/08:30pm 28.4 N 7 9 1012.0 - 0.0 - - 10 - - - -
27/08:00pm 28.4 N 7 9 1011.7 - 0.0 - - 10 - - - -
27/07:30pm 28.5 N 7 9 1011.4 - 0.0 - - 10 - - - -
27/07:00pm 28.7 N 7 9 1011.4 - 0.0 - - 10 - - - -
27/06:30pm 28.7 N 5 7 1011.2 - 0.0 - - 10 - - - -
27/06:00pm 29.3 N 6 9 1011.1 - 0.0 - - 10 - - - -
27/05:30pm 30.0 N 8 10 1010.7 - 0.0 - - 10 - - - -
27/05:00pm 30.2 N 8 11 1010.5 - 0.0 - - 10 - - - -
27/04:30pm 30.9 N 9 12 1010.4 - 0.0 - - 10 - - - -
27/04:00pm 31.3 N 9 13 1010.3 - 0.0 - - 10 - - - -
27/03:30pm 31.4 N 9 12 1010.1 - 0.0 - - 10 - - - -
27/03:00pm 31.0 N 10 14 1010.3 - 0.0 - - 10 - - - -
27/02:30pm 31.4 N 10 12 1010.8 - 0.0 - Partly cloudy 10 - - - -
27/02:00pm 30.9 N 11 15 1011.3 - 0.0 - Partly cloudy 10 - - - -
27/01:30pm 32.8 N 7 10 1011.8 - 0.0 - - 10 - - - -
27/01:00pm 32.9 NE 6 7 1012.3 - 0.0 - Partly cloudy 10 - - - -

Other Formats:

Comma delimited format used in spreadsheet applications
http://www.bom.gov.au/fwo/IDD60701/IDD60701.95142.axf

JavaScript Object Notation format (JSON) in row-major order
http://www.bom.gov.au/fwo/IDD60701/IDD60701.95142.json